Penang/Bayan Lepas, Malaysia
Current Conditions -  °F | °C
As of 8:30 AM on Saturday 25 Oct 2014 (Local Time) from WMKP Reporting Station
Broken Clouds Broken Clouds  
Wind Chill: 82°   Ceiling: 28000
Heat Index: 89°   Visibility: 6mi
Dew Point: 75°   Wind: 0mph
Humidity: 79%   Direction: NA
Pressure: 29.85"   Gusts: NA
Location:  5.29°N, 100.28°E
Report Text: WMKP 250030Z 00000KT 9999 FEW017CB BKN280 28/24 Q1011 NOSIG
Loading
Personal Weather Stations






























Interactive Weather Map
Tropical Storm Tracking
New forecast layout! Learn more

10-Day Weather Forecast

Advertisements
Track Severe Weather on mobile